createdAt,value
2023-02-26T00:01:34.886Z,0.52
2023-02-26T00:06:31.025Z,0.45
2023-02-26T00:11:25.257Z,0.25
2023-02-26T00:16:37.898Z,0.42
2023-02-26T00:21:34.185Z,0.41
2023-02-26T00:26:30.353Z,0.43
2023-02-26T00:31:34.189Z,0.44
2023-02-26T00:36:27.724Z,0.35
2023-02-26T00:41:21.128Z,0.39
2023-02-26T00:46:31.720Z,0.36
2023-02-26T00:51:32.180Z,0.36
2023-02-26T00:56:31.299Z,0.13
2023-02-26T01:01:29.231Z,0.32
2023-02-26T01:06:25.249Z,0.44
2023-02-26T01:11:17.399Z,0.47
2023-02-26T01:16:16.169Z,0.51
2023-02-26T01:21:19.086Z,0.62
2023-02-26T01:26:20.534Z,0.68
2023-02-26T01:31:34.865Z,0.73
2023-02-26T01:36:37.110Z,0.79
2023-02-26T01:41:46.717Z,0.87
2023-02-26T01:46:43.653Z,0.84
2023-02-26T01:51:56.983Z,0.75
2023-02-26T01:56:51.516Z,0.75
2023-02-26T02:01:45.049Z,0.63
2023-02-26T02:06:42.173Z,0.49
2023-02-26T02:11:41.768Z,0.48
2023-02-26T02:16:47.588Z,0.32
2023-02-26T02:22:18.563Z,0.34
2023-02-26T02:27:35.110Z,0.48
2023-02-26T02:32:34.057Z,0.95
2023-02-26T02:37:37.834Z,1.33
2023-02-26T02:42:33.874Z,1.17
2023-02-26T02:47:31.361Z,1.20
2023-02-26T02:52:35.496Z,1.19
2023-02-26T02:57:32.782Z,1.22
2023-02-26T03:02:32.216Z,1.17
2023-02-26T03:07:26.430Z,1.08
2023-02-26T03:12:29.848Z,1.09
2023-02-26T03:17:28.095Z,0.97
2023-02-26T03:22:26.556Z,0.93
2023-02-26T03:27:32.669Z,0.85
2023-02-26T03:32:28.276Z,0.71
2023-02-26T03:37:22.137Z,0.71
2023-02-26T03:42:20.416Z,0.74
2023-02-26T03:47:30.129Z,0.71
2023-02-26T03:52:27.071Z,0.67
2023-02-26T03:57:49.778Z,0.69
2023-02-26T04:03:05.285Z,0.47
2023-02-26T04:07:55.989Z,0.58
2023-02-26T04:12:51.796Z,0.66
2023-02-26T04:17:43.600Z,0.56
2023-02-26T04:22:36.888Z,0.57
2023-02-26T04:27:30.068Z,0.50
2023-02-26T04:32:25.463Z,0.47
2023-02-26T04:37:34.688Z,0.34
2023-02-26T04:42:47.350Z,0.30
2023-02-26T04:47:40.376Z,0.37
2023-02-26T04:52:31.089Z,0.26
2023-02-26T04:57:24.031Z,0.27
2023-02-26T05:02:18.584Z,0.30
2023-02-26T05:07:12.326Z,0.23
2023-02-26T05:12:05.686Z,0.18
2023-02-26T05:17:02.779Z,0.21
2023-02-26T05:21:56.702Z,0.09
2023-02-26T05:26:57.741Z,0.08
2023-02-26T05:31:48.573Z,-0.05
2023-02-26T05:36:39.115Z,-0.01
2023-02-26T05:41:32.989Z,-0.15
2023-02-26T05:46:29.765Z,-0.21
2023-02-26T05:51:20.023Z,-0.21
2023-02-26T05:56:13.798Z,-0.35
2023-02-26T06:01:07.758Z,-0.27
2023-02-26T06:05:59.902Z,-0.42
2023-02-26T06:10:53.500Z,-0.41
2023-02-26T06:15:47.154Z,-0.49
2023-02-26T06:20:42.820Z,-0.36
2023-02-26T06:25:34.142Z,-0.43
2023-02-26T06:30:25.824Z,-0.53
2023-02-26T06:35:15.645Z,-0.50
2023-02-26T06:40:14.087Z,-0.44
2023-02-26T06:45:07.297Z,-0.49
2023-02-26T06:50:03.602Z,-0.44
2023-02-26T06:55:04.241Z,-0.51
2023-02-26T07:00:04.763Z,-0.35
2023-02-26T07:04:55.101Z,-0.43
2023-02-26T07:09:46.142Z,-0.45
2023-02-26T07:14:38.313Z,-0.63
2023-02-26T07:19:40.517Z,-0.55
2023-02-26T07:24:33.064Z,-0.56
2023-02-26T07:29:26.300Z,-0.52
2023-02-26T07:34:18.056Z,-0.52
2023-02-26T07:39:15.093Z,-0.39
2023-02-26T07:44:06.584Z,-0.33
2023-02-26T07:48:57.824Z,-0.24
2023-02-26T07:53:49.864Z,-0.23
2023-02-26T07:58:42.868Z,-0.07
2023-02-26T08:03:34.493Z,-0.07
2023-02-26T08:08:37.161Z,0.06
2023-02-26T08:13:27.770Z,0.18
2023-02-26T08:18:38.968Z,0.33
2023-02-26T08:23:37.408Z,0.28
2023-02-26T08:28:27.810Z,0.47
2023-02-26T08:33:18.228Z,0.87
2023-02-26T08:38:10.995Z,1.02
2023-02-26T08:43:07.741Z,0.86
2023-02-26T08:48:01.346Z,0.87
2023-02-26T08:52:51.123Z,0.90
2023-02-26T08:57:52.514Z,1.05
2023-02-26T09:02:53.222Z,1.07
2023-02-26T09:07:52.036Z,1.11
2023-02-26T09:12:44.910Z,1.24
2023-02-26T09:17:42.496Z,1.32
2023-02-26T09:22:47.485Z,1.41
2023-02-26T09:27:44.015Z,2.35
2023-02-26T09:32:40.709Z,3.23
2023-02-26T09:37:47.721Z,3.79
2023-02-26T09:42:51.404Z,4.37
2023-02-26T09:47:45.860Z,4.93
2023-02-26T09:52:45.217Z,5.33
2023-02-26T09:57:38.973Z,5.48
2023-02-26T10:02:43.116Z,5.34
2023-02-26T10:07:39.782Z,5.28
2023-02-26T10:12:37.849Z,5.65
2023-02-26T10:17:36.491Z,6.04
2023-02-26T10:22:31.690Z,6.38
2023-02-26T10:27:24.124Z,6.57
2023-02-26T10:32:26.334Z,6.65
2023-02-26T10:37:22.505Z,7.03
2023-02-26T10:42:16.550Z,7.07
2023-02-26T10:47:17.181Z,7.04
2023-02-26T10:52:18.972Z,6.62
2023-02-26T10:57:17.783Z,5.91
2023-02-26T11:02:21.816Z,5.86
2023-02-26T11:07:20.055Z,5.29
2023-02-26T11:12:30.593Z,5.64
2023-02-26T11:17:23.316Z,5.57
2023-02-26T11:22:20.341Z,5.47
2023-02-26T11:27:17.059Z,5.78
2023-02-26T11:32:27.051Z,5.53
2023-02-26T11:37:32.640Z,5.80
2023-02-26T11:42:24.021Z,5.60
2023-02-26T11:47:23.374Z,5.50
2023-02-26T11:52:26.564Z,5.54
2023-02-26T11:57:20.200Z,5.70
2023-02-26T12:02:19.891Z,5.95
2023-02-26T12:07:18.997Z,5.70
2023-02-26T12:12:18.765Z,5.67
2023-02-26T12:17:15.776Z,5.59
2023-02-26T12:22:14.686Z,5.29
2023-02-26T12:27:09.580Z,5.02
2023-02-26T12:32:16.443Z,5.17
2023-02-26T12:37:31.847Z,5.45
2023-02-26T12:42:32.744Z,5.26
2023-02-26T12:47:33.357Z,5.40
2023-02-26T12:52:39.660Z,5.60
2023-02-26T12:57:55.286Z,5.46
2023-02-26T13:03:13.495Z,5.45
2023-02-26T13:08:15.158Z,5.60
2023-02-26T13:13:25.946Z,5.51
2023-02-26T13:18:21.074Z,5.70
2023-02-26T13:23:20.221Z,5.46
2023-02-26T13:28:28.620Z,5.48
2023-02-26T13:33:24.192Z,5.80
2023-02-26T13:38:25.208Z,5.75
2023-02-26T13:43:29.973Z,5.55
2023-02-26T13:48:30.545Z,5.86
2023-02-26T13:53:40.713Z,6.03
2023-02-26T14:03:49.680Z,5.63
2023-02-26T14:09:01.289Z,5.67
2023-02-26T14:14:13.924Z,5.95
2023-02-26T14:19:16.269Z,5.91
2023-02-26T14:24:11.642Z,5.58
2023-02-26T14:29:33.469Z,5.79
2023-02-26T14:34:43.774Z,5.68
2023-02-26T14:39:41.844Z,5.94
2023-02-26T14:44:43.005Z,5.98
2023-02-26T14:49:41.488Z,6.06
2023-02-26T14:54:53.602Z,5.67
2023-02-26T14:59:59.271Z,6.10
2023-02-26T15:05:11.470Z,5.80
2023-02-26T15:10:19.917Z,5.99
2023-02-26T15:15:37.128Z,5.94
2023-02-26T15:20:35.649Z,5.94
2023-02-26T15:25:41.862Z,5.92
2023-02-26T15:36:03.576Z,5.70
2023-02-26T15:41:01.335Z,5.64
2023-02-26T15:46:11.619Z,5.76
2023-02-26T15:51:13.160Z,5.55
2023-02-26T15:56:11.063Z,5.94
2023-02-26T16:01:03.521Z,5.53
2023-02-26T16:05:57.699Z,5.66
2023-02-26T16:10:47.449Z,5.88
2023-02-26T16:15:51.646Z,5.89
2023-02-26T16:20:43.887Z,5.75
2023-02-26T16:25:51.286Z,5.39
2023-02-26T16:31:20.644Z,4.90
2023-02-26T16:36:27.302Z,5.09
2023-02-26T16:41:32.152Z,4.94
2023-02-26T16:46:25.136Z,5.12
2023-02-26T16:51:16.364Z,4.79
2023-02-26T16:56:17.951Z,4.73
2023-02-26T17:01:23.069Z,4.64
2023-02-26T17:06:24.345Z,4.62
2023-02-26T17:11:25.082Z,4.43
2023-02-26T17:16:16.541Z,4.35
2023-02-26T17:21:11.324Z,4.35
2023-02-26T17:26:06.810Z,4.28
2023-02-26T17:31:03.293Z,4.29
2023-02-26T17:35:57.055Z,4.04
2023-02-26T17:40:49.907Z,4.10
2023-02-26T17:45:49.261Z,3.96
2023-02-26T17:50:48.382Z,3.78
2023-02-26T17:55:39.887Z,3.90
2023-02-26T18:00:30.111Z,3.89
2023-02-26T18:05:25.641Z,3.76
2023-02-26T18:10:24.863Z,3.70
2023-02-26T18:15:15.555Z,3.58
2023-02-26T18:20:13.314Z,3.51
2023-02-26T18:25:03.481Z,3.44
2023-02-26T18:29:59.441Z,3.26
2023-02-26T18:34:52.316Z,3.47
2023-02-26T18:39:45.214Z,3.40
2023-02-26T18:44:35.562Z,3.35
2023-02-26T18:49:40.222Z,3.22
2023-02-26T18:54:36.833Z,3.20
2023-02-26T18:59:30.752Z,3.14
2023-02-26T19:04:20.771Z,3.09
2023-02-26T19:09:14.717Z,3.13
2023-02-26T19:14:10.379Z,3.04
2023-02-26T19:19:06.847Z,2.95
2023-02-26T19:23:57.267Z,2.88
2023-02-26T19:28:59.424Z,2.94
2023-02-26T19:33:50.349Z,2.83
2023-02-26T19:38:48.042Z,2.79
2023-02-26T19:43:37.780Z,2.79
2023-02-26T19:48:32.815Z,2.70
2023-02-26T19:53:23.093Z,2.65
2023-02-26T19:58:16.304Z,2.53
2023-02-26T20:03:17.099Z,2.48
2023-02-26T20:08:14.579Z,2.44
2023-02-26T20:13:14.002Z,2.44
2023-02-26T20:18:06.176Z,2.44
2023-02-26T20:23:14.747Z,2.43
2023-02-26T20:28:15.255Z,2.42
2023-02-26T20:33:06.393Z,2.37
2023-02-26T20:37:56.581Z,2.47
2023-02-26T20:42:47.448Z,2.43
2023-02-26T20:47:40.248Z,2.44
2023-02-26T20:52:30.629Z,2.59
2023-02-26T20:57:23.454Z,2.41
2023-02-26T21:02:16.354Z,2.55
2023-02-26T21:07:18.155Z,2.48
2023-02-26T21:12:12.304Z,2.41
2023-02-26T21:17:02.351Z,2.31
2023-02-26T21:21:57.618Z,2.30
2023-02-26T21:26:49.927Z,2.28
2023-02-26T21:31:40.659Z,2.30
2023-02-26T21:36:31.447Z,2.21
2023-02-26T21:41:22.096Z,2.09
2023-02-26T21:46:16.991Z,2.02
2023-02-26T21:51:16.081Z,2.11
2023-02-26T21:56:14.307Z,2.07
2023-02-26T22:01:15.004Z,2.07
2023-02-26T22:06:09.346Z,2.05
2023-02-26T22:11:06.176Z,2.06
2023-02-26T22:16:04.956Z,2.05
2023-02-26T22:21:01.279Z,1.85
2023-02-26T22:25:56.746Z,1.78
2023-02-26T22:30:50.657Z,2.02
2023-02-26T22:35:41.852Z,2.07
2023-02-26T22:40:32.339Z,2.07
2023-02-26T22:45:35.384Z,2.07
2023-02-26T22:50:29.755Z,2.07
2023-02-26T22:55:23.099Z,2.08
2023-02-26T23:00:15.298Z,2.04
2023-02-26T23:05:10.609Z,2.11
2023-02-26T23:10:01.373Z,2.17
2023-02-26T23:14:53.626Z,2.06
2023-02-26T23:19:46.048Z,2.04
2023-02-26T23:24:40.838Z,2.13
2023-02-26T23:29:33.215Z,2.13
2023-02-26T23:34:26.496Z,2.13
2023-02-26T23:39:19.418Z,2.09
2023-02-26T23:44:15.659Z,2.05
2023-02-26T23:49:09.878Z,2.02
2023-02-26T23:54:00.287Z,1.91
2023-02-26T23:58:51.212Z,1.95
